Time;durP1;ratioP1;P1;durP2;ratioP2;P2;SDS_P1;SDS_P2;PMS_P1;PMS_P2;Temp;Humidity;BMP_temperature;BMP_pressure;BME280_temperature;BME280_humidity;BME280_pressure;Samples;Min_cycle;Max_cycle;Signal;HPM_P1;HPM_P2
2024/02/21 00:00:27;;;;;;;15.77;6.90;;;4.70;1.00;;;;;;6085818;23;20033;-78
2024/02/21 00:03:15;;;;;;;23.83;6.57;;;4.80;1.00;;;;;;6047823;23;20496;-76
2024/02/21 00:06:04;;;;;;;18.95;7.07;;;4.80;1.00;;;;;;6072733;23;20058;-77
2024/02/21 00:08:53;;;;;;;32.47;6.40;;;4.80;1.00;;;;;;6069076;23;20565;-76
2024/02/21 00:11:41;;;;;;;21.13;6.07;;;4.80;1.00;;;;;;6040742;23;20321;-78
2024/02/21 00:14:28;;;;;;;22.50;6.22;;;4.80;1.00;;;;;;6064366;23;20205;-79
2024/02/21 00:17:17;;;;;;;22.38;6.32;;;4.80;1.00;;;;;;6063359;23;20031;-79
2024/02/21 00:20:07;;;;;;;18.63;6.05;;;4.70;1.00;;;;;;6064805;23;20031;-79
2024/02/21 00:22:55;;;;;;;17.85;5.85;;;4.70;1.00;;;;;;6062917;23;20386;-78
2024/02/21 00:25:43;;;;;;;22.70;5.97;;;4.70;1.00;;;;;;6063150;23;20030;-80
2024/02/21 00:28:31;;;;;;;19.42;6.05;;;4.70;1.00;;;;;;6065616;23;20027;-79
2024/02/21 00:31:19;;;;;;;22.63;6.40;;;4.70;1.00;;;;;;6044604;23;20030;-79
2024/02/21 00:34:07;;;;;;;24.88;6.00;;;4.70;1.00;;;;;;6062550;23;20301;-80
2024/02/21 00:36:55;;;;;;;20.88;5.70;;;4.70;1.00;;;;;;6051070;23;20029;-76
2024/02/21 00:39:43;;;;;;;25.38;5.88;;;4.70;1.00;;;;;;6040294;23;20410;-79
2024/02/21 00:42:30;;;;;;;19.33;5.40;;;4.70;1.00;;;;;;6065338;23;20490;-77
2024/02/21 00:45:18;;;;;;;14.48;5.00;;;4.70;1.00;;;;;;6067337;23;20130;-79
2024/02/21 00:48:06;;;;;;;18.38;5.28;;;4.90;1.00;;;;;;6042577;23;20094;-80
2024/02/21 00:50:53;;;;;;;15.38;5.95;;;4.90;1.00;;;;;;6070642;23;20042;-78
2024/02/21 00:53:43;;;;;;;17.95;4.93;;;4.90;1.00;;;;;;6082362;23;20066;-78
2024/02/21 00:56:30;;;;;;;17.55;4.57;;;4.90;1.00;;;;;;6077975;23;20023;-77
2024/02/21 00:59:18;;;;;;;17.48;5.63;;;4.90;1.00;;;;;;6076296;23;20078;-81
2024/02/21 01:02:06;;;;;;;14.45;4.72;;;5.00;1.00;;;;;;6070301;23;20070;-78
2024/02/21 01:04:55;;;;;;;12.30;4.45;;;4.90;99.90;;;;;;6061039;23;20034;-79
2024/02/21 01:07:42;;;;;;;14.75;4.13;;;5.00;99.90;;;;;;6021270;23;20062;-78
2024/02/21 01:10:30;;;;;;;15.57;5.53;;;5.00;99.90;;;;;;6063602;23;20026;-80
2024/02/21 01:13:18;;;;;;;16.05;5.13;;;5.00;99.90;;;;;;6041009;23;20027;-77
2024/02/21 01:16:06;;;;;;;12.95;4.50;;;5.00;99.90;;;;;;6043611;23;20047;-80
2024/02/21 01:18:54;;;;;;;16.33;4.97;;;5.00;99.90;;;;;;6041950;23;20090;-79
2024/02/21 01:21:41;;;;;;;20.90;4.82;;;5.00;99.90;;;;;;6042379;23;20027;-79
2024/02/21 01:24:29;;;;;;;17.10;4.82;;;4.90;99.90;;;;;;6072162;23;20031;-79
2024/02/21 01:27:17;;;;;;;14.13;4.88;;;4.90;99.90;;;;;;6069368;23;20031;-77
2024/02/21 01:30:05;;;;;;;19.52;5.63;;;4.80;99.90;;;;;;6062751;23;20022;-80
2024/02/21 01:32:52;;;;;;;18.95;4.75;;;4.90;99.90;;;;;;6072521;23;20469;-77
2024/02/21 01:35:40;;;;;;;13.77;5.10;;;4.90;99.90;;;;;;6065457;23;20042;-81
2024/02/21 01:38:28;;;;;;;20.80;5.40;;;4.90;99.90;;;;;;6060800;23;20475;-79
2024/02/21 01:41:18;;;;;;;17.58;5.90;;;4.90;99.90;;;;;;6068064;23;20133;-79
2024/02/21 01:44:06;;;;;;;17.17;5.13;;;4.90;99.90;;;;;;6070498;23;20037;-77
2024/02/21 01:46:53;;;;;;;14.45;5.13;;;4.90;99.90;;;;;;6061251;23;20037;-77
2024/02/21 01:49:42;;;;;;;17.08;5.25;;;4.80;99.90;;;;;;6059405;23;20023;-79
2024/02/21 01:52:34;;;;;;;17.13;5.53;;;4.80;99.90;;;;;;6058421;23;20026;-80
2024/02/21 01:55:21;;;;;;;23.67;5.55;;;4.80;99.90;;;;;;6064328;23;20027;-81
2024/02/21 01:58:10;;;;;;;18.08;5.85;;;4.80;99.90;;;;;;6041800;23;20113;-77
2024/02/21 02:00:58;;;;;;;13.02;5.15;;;4.70;99.90;;;;;;6061877;23;20030;-79
2024/02/21 02:03:47;;;;;;;12.98;5.50;;;4.70;99.90;;;;;;6067014;23;20038;-78
2024/02/21 02:06:34;;;;;;;18.08;5.65;;;4.70;99.90;;;;;;6053053;23;20406;-79
2024/02/21 02:09:22;;;;;;;22.08;6.38;;;4.60;99.90;;;;;;6060095;23;20109;-79
2024/02/21 02:12:10;;;;;;;18.05;5.97;;;4.60;99.90;;;;;;6074701;23;20368;-79
2024/02/21 02:15:04;;;;;;;17.77;6.70;;;4.60;99.90;;;;;;6064250;23;20026;-80
2024/02/21 02:17:52;;;;;;;23.90;6.40;;;4.60;99.90;;;;;;6061803;23;20033;-78
2024/02/21 02:20:40;;;;;;;19.35;6.00;;;4.60;99.90;;;;;;6062137;23;20525;-79
2024/02/21 02:23:31;;;;;;;20.92;6.28;;;4.60;99.90;;;;;;6063003;23;20775;-80
2024/02/21 02:26:19;;;;;;;13.68;5.20;;;4.60;99.90;;;;;;6064514;23;20031;-76
2024/02/21 02:29:10;;;;;;;13.93;5.38;;;4.60;99.90;;;;;;6067277;23;20030;-81
2024/02/21 02:31:57;;;;;;;25.45;6.15;;;4.60;99.90;;;;;;6066382;23;20130;-80
2024/02/21 02:34:46;;;;;;;19.67;5.68;;;4.60;99.90;;;;;;6070197;23;20127;-80
2024/02/21 02:37:33;;;;;;;18.88;6.10;;;4.60;99.90;;;;;;6030678;23;20097;-79
2024/02/21 02:40:22;;;;;;;23.40;5.50;;;4.60;99.90;;;;;;6042104;23;20039;-77
2024/02/21 02:43:11;;;;;;;15.02;5.38;;;4.70;99.90;;;;;;6062950;23;20027;-78
2024/02/21 02:45:58;;;;;;;15.88;6.10;;;4.70;99.90;;;;;;6068420;23;20340;-77
2024/02/21 02:48:46;;;;;;;19.05;5.03;;;4.60;99.90;;;;;;6062750;23;20523;-76
2024/02/21 02:51:34;;;;;;;17.83;5.53;;;4.70;99.90;;;;;;6046374;23;20027;-78
2024/02/21 02:54:22;;;;;;;17.58;5.82;;;4.70;99.90;;;;;;6079114;23;20023;-80
2024/02/21 02:57:09;;;;;;;18.85;5.18;;;4.70;99.90;;;;;;6044699;23;20082;-79
2024/02/21 02:59:57;;;;;;;14.85;5.07;;;4.70;99.90;;;;;;6064402;23;20229;-79
2024/02/21 03:02:46;;;;;;;14.63;5.30;;;4.70;99.90;;;;;;6068838;23;20035;-81
2024/02/21 03:05:33;;;;;;;17.67;5.57;;;4.60;99.90;;;;;;6067573;23;20532;-77
2024/02/21 03:08:23;;;;;;;14.95;4.70;;;4.60;99.90;;;;;;6064803;23;20018;-76
2024/02/21 03:11:10;;;;;;;15.90;5.00;;;4.60;99.90;;;;;;6077970;23;20014;-77
2024/02/21 03:13:58;;;;;;;14.45;5.00;;;4.60;99.90;;;;;;6053999;23;20026;-78
2024/02/21 03:16:46;;;;;;;15.95;4.97;;;4.70;99.90;;;;;;6061198;23;20031;-77
2024/02/21 03:19:33;;;;;;;13.55;4.90;;;4.70;99.90;;;;;;6064327;23;20031;-78
2024/02/21 03:22:24;;;;;;;17.42;5.63;;;4.70;99.90;;;;;;6043858;23;20051;-78
2024/02/21 03:25:13;;;;;;;13.27;4.25;;;4.60;99.90;;;;;;6040184;23;20031;-78
2024/02/21 03:28:01;;;;;;;16.40;4.80;;;4.60;99.90;;;;;;6070589;23;20037;-77
2024/02/21 03:30:50;;;;;;;13.63;4.65;;;4.60;99.90;;;;;;6060549;23;20027;-78
2024/02/21 03:33:39;;;;;;;17.25;5.18;;;4.70;99.90;;;;;;6076074;23;20037;-78
2024/02/21 03:36:26;;;;;;;12.18;4.30;;;4.70;99.90;;;;;;6058477;23;20031;-78
2024/02/21 03:39:14;;;;;;;11.75;4.47;;;4.60;99.90;;;;;;6055517;23;20061;-77
2024/02/21 03:42:04;;;;;;;13.73;4.68;;;4.60;99.90;;;;;;6075649;23;20031;-77
2024/02/21 03:44:52;;;;;;;19.42;5.78;;;4.60;99.90;;;;;;6064093;23;20023;-79
2024/02/21 03:47:41;;;;;;;13.93;4.63;;;4.60;99.90;;;;;;6063719;23;20542;-80
2024/02/21 03:50:30;;;;;;;11.55;4.25;;;4.60;99.90;;;;;;6063743;23;20037;-77
2024/02/21 03:53:17;;;;;;;12.48;5.03;;;4.50;99.90;;;;;;6062453;23;20161;-79
2024/02/21 03:56:05;;;;;;;18.50;4.93;;;4.50;99.90;;;;;;6043096;23;20075;-79
2024/02/21 03:58:53;;;;;;;19.05;4.60;;;4.50;99.90;;;;;;6043712;23;20090;-78
2024/02/21 04:01:40;;;;;;;14.20;5.15;;;4.50;99.90;;;;;;6063642;23;20034;-78
2024/02/21 04:04:28;;;;;;;11.45;4.25;;;4.50;99.90;;;;;;6044405;23;20079;-78
2024/02/21 04:07:19;;;;;;;12.55;4.70;;;4.40;99.90;;;;;;6041088;23;20034;-77
2024/02/21 04:10:08;;;;;;;16.48;5.03;;;4.40;99.90;;;;;;6067251;23;20019;-81
2024/02/21 04:12:55;;;;;;;14.50;5.45;;;4.30;99.90;;;;;;6065805;23;20023;-80
2024/02/21 04:15:43;;;;;;;11.32;4.10;;;4.30;99.90;;;;;;6047450;23;20159;-79
2024/02/21 04:18:30;;;;;;;14.27;4.13;;;4.30;99.90;;;;;;6065028;23;20033;-78
2024/02/21 04:21:18;;;;;;;12.48;4.40;;;4.40;99.90;;;;;;6074973;23;20126;-78
2024/02/21 04:24:06;;;;;;;14.25;4.57;;;4.30;99.90;;;;;;6062437;23;20046;-79
2024/02/21 04:26:53;;;;;;;14.02;4.10;;;4.30;99.90;;;;;;6063571;23;20031;-79
2024/02/21 04:29:42;;;;;;;9.55;3.95;;;4.30;99.90;;;;;;6064067;23;20030;-79
2024/02/21 04:32:34;;;;;;;15.77;4.43;;;4.30;99.90;;;;;;6063211;23;20022;-79
2024/02/21 04:35:21;;;;;;;16.48;3.75;;;4.40;99.90;;;;;;6042912;23;20025;-79
2024/02/21 04:38:10;;;;;;;7.72;4.25;;;4.50;99.90;;;;;;6041550;23;20054;-79
2024/02/21 04:41:00;;;;;;;9.27;4.20;;;4.50;99.90;;;;;;6063241;23;20530;-79
2024/02/21 04:43:49;;;;;;;11.57;4.38;;;4.50;99.90;;;;;;6042335;23;20037;-77
2024/02/21 04:46:36;;;;;;;14.68;4.47;;;4.50;99.90;;;;;;6063503;23;20031;-80
2024/02/21 04:49:25;;;;;;;12.82;4.30;;;4.50;99.90;;;;;;6063054;23;20038;-79
2024/02/21 04:52:12;;;;;;;11.45;3.67;;;4.50;98.10;;;;;;6061979;23;20031;-79
2024/02/21 04:55:00;;;;;;;12.85;4.53;;;4.50;93.30;;;;;;6062065;23;20027;-81
2024/02/21 04:57:47;;;;;;;13.55;4.75;;;4.40;90.30;;;;;;6074474;23;20114;-80
2024/02/21 05:00:35;;;;;;;19.63;4.30;;;4.40;85.70;;;;;;6068928;23;20030;-78
2024/02/21 05:03:22;;;;;;;19.48;5.15;;;4.30;89.30;;;;;;6034521;23;20019;-79
2024/02/21 05:06:10;;;;;;;13.35;4.13;;;4.20;92.00;;;;;;6068614;23;20027;-80
2024/02/21 05:08:58;;;;;;;11.93;4.30;;;4.20;97.80;;;;;;6061511;23;20022;-78
2024/02/21 05:11:45;;;;;;;10.50;3.97;;;4.20;99.90;;;;;;6059881;23;20121;-79
2024/02/21 05:14:33;;;;;;;15.65;4.65;;;4.10;99.90;;;;;;6067873;23;20513;-81
2024/02/21 05:17:22;;;;;;;11.80;4.65;;;4.00;99.90;;;;;;6070650;23;20042;-79
2024/02/21 05:20:11;;;;;;;14.98;4.65;;;4.00;99.90;;;;;;6042446;23;20105;-81
2024/02/21 05:23:00;;;;;;;12.07;3.97;;;3.90;99.90;;;;;;6060401;23;20041;-80
2024/02/21 05:25:49;;;;;;;21.48;5.38;;;3.80;99.90;;;;;;6061801;23;20031;-78
2024/02/21 05:28:36;;;;;;;22.70;5.00;;;3.80;99.90;;;;;;6041962;23;20035;-79
2024/02/21 05:31:23;;;;;;;15.00;4.97;;;3.80;99.90;;;;;;6061529;23;20442;-80
2024/02/21 05:34:11;;;;;;;19.42;5.13;;;3.70;99.90;;;;;;6062248;23;20022;-81
2024/02/21 05:37:00;;;;;;;22.63;5.40;;;3.70;99.90;;;;;;6041275;23;20026;-77
2024/02/21 05:39:48;;;;;;;10.88;4.82;;;3.60;99.90;;;;;;6065447;23;20538;-77
2024/02/21 05:42:38;;;;;;;11.40;5.63;;;3.60;99.90;;;;;;6027265;23;20634;-79
2024/02/21 05:45:29;;;;;;;17.02;5.13;;;3.60;99.90;;;;;;6063665;23;20378;-76
2024/02/21 05:48:16;;;;;;;11.93;4.35;;;3.60;99.90;;;;;;6063818;23;20079;-77
2024/02/21 05:51:05;;;;;;;14.70;5.28;;;3.70;99.90;;;;;;6055388;23;20029;-77
2024/02/21 05:53:54;;;;;;;10.38;4.78;;;3.70;99.90;;;;;;6057088;23;20083;-78
2024/02/21 05:56:48;;;;;;;17.10;4.72;;;3.70;99.90;;;;;;6078991;23;20039;-79
2024/02/21 05:59:39;;;;;;;14.45;4.97;;;3.60;99.90;;;;;;6077001;23;20033;-79
2024/02/21 06:02:27;;;;;;;11.10;4.78;;;3.60;99.90;;;;;;6078454;23;20122;-78
2024/02/21 06:05:15;;;;;;;20.75;4.63;;;3.60;99.90;;;;;;6070277;23;20027;-80
2024/02/21 06:08:04;;;;;;;14.98;4.75;;;3.60;99.90;;;;;;6042163;23;20031;-80
2024/02/21 06:10:54;;;;;;;14.25;4.72;;;3.60;99.90;;;;;;6053679;23;20030;-79
2024/02/21 06:13:42;;;;;;;17.58;5.28;;;3.60;99.90;;;;;;6045671;23;20051;-81
2024/02/21 06:16:30;;;;;;;15.88;5.00;;;3.70;99.90;;;;;;6065249;23;20023;-80
2024/02/21 06:19:21;;;;;;;18.25;5.38;;;3.70;99.90;;;;;;6060091;23;20023;-79
2024/02/21 06:22:08;;;;;;;15.93;4.78;;;3.70;99.90;;;;;;6067748;23;20034;-78
2024/02/21 06:25:00;;;;;;;13.77;4.80;;;3.70;99.90;;;;;;6066075;23;20030;-79
2024/02/21 06:27:47;;;;;;;14.60;5.20;;;3.70;99.90;;;;;;6028695;23;20026;-77
2024/02/21 06:30:35;;;;;;;13.57;5.50;;;3.70;99.90;;;;;;6071206;23;20023;-82
2024/02/21 06:33:24;;;;;;;17.38;5.10;;;3.70;99.90;;;;;;6073946;23;20066;-81
2024/02/21 06:36:14;;;;;;;11.38;4.82;;;3.70;99.90;;;;;;6058002;23;20034;-75
2024/02/21 06:39:07;;;;;;;16.70;5.22;;;3.70;99.90;;;;;;6073106;23;20027;-76
2024/02/21 06:42:02;;;;;;;10.93;4.07;;;3.70;99.90;;;;;;6057656;23;20049;-79
2024/02/21 06:44:50;;;;;;;19.33;4.80;;;3.80;99.90;;;;;;6071949;23;20025;-74
2024/02/21 06:47:37;;;;;;;18.17;5.28;;;3.90;99.90;;;;;;6074414;23;20046;-77
2024/02/21 06:50:28;;;;;;;10.38;4.97;;;3.90;99.90;;;;;;6080251;23;20022;-77
2024/02/21 06:53:18;;;;;;;12.80;4.68;;;3.90;99.90;;;;;;6044471;23;20163;-80
2024/02/21 06:56:06;;;;;;;17.73;4.53;;;4.00;99.90;;;;;;6066453;23;20034;-79
2024/02/21 06:58:55;;;;;;;15.35;4.88;;;4.00;99.90;;;;;;6075599;23;20124;-77
2024/02/21 07:01:49;;;;;;;22.02;5.60;;;4.10;99.90;;;;;;6045379;23;20031;-79
2024/02/21 07:04:37;;;;;;;9.63;4.50;;;4.20;99.90;;;;;;6056479;23;20034;-79
2024/02/21 07:07:25;;;;;;;15.38;5.10;;;4.30;99.90;;;;;;6057971;23;20023;-80
2024/02/21 07:10:13;;;;;;;14.60;5.53;;;4.40;99.90;;;;;;6059496;23;20033;-79
2024/02/21 07:13:02;;;;;;;15.65;5.03;;;4.50;99.90;;;;;;6057560;23;20058;-79
2024/02/21 07:15:50;;;;;;;18.35;4.82;;;4.60;99.90;;;;;;6056549;23;20030;-77
2024/02/21 07:18:37;;;;;;;16.25;4.80;;;4.70;99.90;;;;;;6065581;23;20072;-77
2024/02/21 07:21:25;;;;;;;12.57;5.03;;;4.90;99.90;;;;;;6043983;23;20101;-78
2024/02/21 07:24:15;;;;;;;18.20;5.53;;;5.00;99.90;;;;;;6045654;23;20031;-80
2024/02/21 07:27:04;;;;;;;15.70;4.53;;;5.20;99.90;;;;;;6065196;23;20026;-78
2024/02/21 07:29:52;;;;;;;15.15;4.00;;;5.50;92.80;;;;;;6058041;23;20027;-79
2024/02/21 07:32:40;;;;;;;11.55;3.90;;;5.60;33.80;;;;;;6054902;23;20031;-78
2024/02/21 07:35:28;;;;;;;12.18;4.32;;;5.60;1.00;;;;;;6054317;23;20102;-77
2024/02/21 07:38:18;;;;;;;18.83;4.80;;;5.70;1.00;;;;;;6033678;23;20027;-77
2024/02/21 07:41:06;;;;;;;15.32;4.30;;;5.90;1.00;;;;;;6053875;23;20669;-76
2024/02/21 07:43:53;;;;;;;12.77;4.68;;;6.20;1.00;;;;;;6053045;23;20030;-76
2024/02/21 07:46:41;;;;;;;13.90;4.57;;;6.20;1.00;;;;;;6052613;23;20466;-77
2024/02/21 07:49:32;;;;;;;11.32;4.32;;;6.00;1.00;;;;;;6051776;23;20031;-79
2024/02/21 07:52:19;;;;;;;14.13;4.45;;;5.90;1.00;;;;;;6051859;23;20035;-76
2024/02/21 07:55:10;;;;;;;15.07;4.25;;;5.80;1.00;;;;;;6054241;23;20041;-77
2024/02/21 07:57:59;;;;;;;14.45;4.75;;;5.90;1.00;;;;;;6035019;23;20041;-78
2024/02/21 08:00:48;;;;;;;15.48;4.40;;;5.90;1.00;;;;;;6064839;23;20037;-79
2024/02/21 08:03:36;;;;;;;16.17;4.20;;;6.00;1.00;;;;;;6058992;23;20027;-78
2024/02/21 08:06:25;;;;;;;14.13;4.50;;;5.90;1.00;;;;;;6043068;23;20038;-79
2024/02/21 08:09:13;;;;;;;10.70;4.47;;;6.00;1.00;;;;;;6050403;23;20450;-79
2024/02/21 08:12:00;;;;;;;11.95;4.35;;;6.00;1.00;;;;;;6079601;23;20031;-78
2024/02/21 08:14:48;;;;;;;12.95;4.50;;;6.10;1.00;;;;;;6060420;23;20029;-76
2024/02/21 08:17:37;;;;;;;13.90;4.32;;;6.20;1.00;;;;;;6053983;23;20154;-80
2024/02/21 08:20:26;;;;;;;15.00;4.40;;;6.20;1.00;;;;;;6015187;23;20411;-78
2024/02/21 08:23:16;;;;;;;13.57;4.22;;;6.30;1.00;;;;;;6054634;23;20033;-78
2024/02/21 08:26:05;;;;;;;10.63;4.38;;;6.40;99.90;;;;;;6034608;23;20027;-77
2024/02/21 08:28:53;;;;;;;16.02;3.95;;;6.40;99.90;;;;;;6053844;23;20030;-78
2024/02/21 08:31:41;;;;;;;14.90;4.75;;;6.40;99.90;;;;;;6052584;23;20035;-77
2024/02/21 08:34:30;;;;;;;17.00;4.43;;;6.50;99.90;;;;;;6032579;23;20031;-77
2024/02/21 08:37:18;;;;;;;14.18;4.65;;;6.80;99.90;;;;;;6033005;23;20042;-77
2024/02/21 08:40:09;;;;;;;10.40;3.67;;;7.10;99.90;;;;;;6033750;23;20359;-76
2024/02/21 08:42:56;;;;;;;13.60;4.55;;;7.10;99.90;;;;;;6032238;23;20042;-77
2024/02/21 08:45:44;;;;;;;15.38;4.38;;;7.10;99.90;;;;;;6054025;23;20099;-78
2024/02/21 08:48:32;;;;;;;8.95;3.80;;;7.20;99.90;;;;;;6064512;23;20023;-77
2024/02/21 08:51:21;;;;;;;14.30;3.95;;;7.30;99.90;;;;;;6063196;23;20118;-78
2024/02/21 08:54:09;;;;;;;11.75;3.88;;;7.30;99.90;;;;;;6054804;23;20081;-76
2024/02/21 08:56:58;;;;;;;12.25;4.60;;;7.30;99.90;;;;;;6054673;23;20054;-78
2024/02/21 08:59:47;;;;;;;12.70;3.90;;;7.40;99.90;;;;;;6057445;23;20037;-77
2024/02/21 09:02:34;;;;;;;14.40;3.75;;;7.40;99.90;;;;;;6055676;23;20095;-77
2024/02/21 09:05:22;;;;;;;7.20;3.75;;;7.30;99.90;;;;;;6041279;23;20033;-77
2024/02/21 09:08:10;;;;;;;9.20;4.03;;;7.30;99.90;;;;;;6069210;23;20042;-78
2024/02/21 09:10:59;;;;;;;15.68;4.13;;;7.30;99.90;;;;;;6067587;23;20050;-78
2024/02/21 09:13:47;;;;;;;24.70;8.02;;;7.30;99.90;;;;;;6034076;23;20023;-78
2024/02/21 09:16:35;;;;;;;17.20;5.45;;;7.40;99.90;;;;;;6055573;23;20310;-80
2024/02/21 09:19:23;;;;;;;15.82;4.90;;;7.30;99.90;;;;;;6034838;23;20027;-79
2024/02/21 09:22:11;;;;;;;14.18;4.20;;;7.30;99.90;;;;;;6053362;23;20490;-78
2024/02/21 09:24:59;;;;;;;13.45;3.92;;;7.50;99.90;;;;;;6055773;23;20041;-78
2024/02/21 09:27:49;;;;;;;11.27;3.80;;;7.60;99.90;;;;;;6069181;23;20031;-79
2024/02/21 09:30:39;;;;;;;14.23;3.60;;;7.70;99.90;;;;;;6069122;23;20532;-81
2024/02/21 09:33:26;;;;;;;10.63;4.03;;;7.90;99.90;;;;;;6036652;23;20031;-82
2024/02/21 09:36:19;;;;;;;8.75;3.70;;;8.10;99.90;;;;;;6067051;23;20035;-78
2024/02/21 09:39:06;;;;;;;9.13;3.20;;;8.40;99.90;;;;;;6040232;23;20034;-77
2024/02/21 09:42:03;;;;;;;10.35;3.00;;;8.60;99.90;;;;;;6058446;23;20023;-79
2024/02/21 09:44:51;;;;;;;12.73;4.32;;;8.70;99.90;;;;;;6036522;23;20108;-78
2024/02/21 09:48:09;;;;;;;16.40;3.85;;;8.80;99.90;;;;;;6057121;23;20481;-78
2024/02/21 09:50:59;;;;;;;11.57;3.47;;;9.10;99.90;;;;;;6057559;23;20059;-80
2024/02/21 09:53:50;;;;;;;10.02;3.40;;;9.20;99.90;;;;;;6057186;23;20037;-79
2024/02/21 09:56:52;;;;;;;9.00;2.92;;;9.10;99.90;;;;;;6055876;23;20043;-77
2024/02/21 09:59:41;;;;;;;10.55;3.47;;;9.30;99.90;;;;;;6054869;23;20031;-76
2024/02/21 10:02:33;;;;;;;11.93;3.25;;;9.70;99.90;;;;;;6058876;23;20078;-79
2024/02/21 10:05:21;;;;;;;12.25;3.95;;;9.90;99.90;;;;;;6056783;23;20030;-78
2024/02/21 10:08:15;;;;;;;12.50;3.08;;;10.10;99.90;;;;;;6054918;23;20374;-77
2024/02/21 10:11:05;;;;;;;12.13;3.15;;;10.70;99.90;;;;;;6034904;23;20093;-79
2024/02/21 10:14:14;;;;;;;9.80;3.08;;;10.80;99.90;;;;;;6057126;23;20026;-78
2024/02/21 10:17:02;;;;;;;12.52;3.45;;;10.60;99.90;;;;;;6071825;23;20037;-78
2024/02/21 10:19:52;;;;;;;9.45;2.75;;;10.70;99.90;;;;;;6077400;23;20041;-78
2024/02/21 10:22:39;;;;;;;8.95;3.25;;;10.70;99.90;;;;;;6036164;23;20035;-79
2024/02/21 10:25:30;;;;;;;8.95;2.97;;;10.60;99.90;;;;;;6055647;23;20027;-80
2024/02/21 10:28:23;;;;;;;9.63;3.53;;;10.90;99.90;;;;;;6070155;23;20421;-79
2024/02/21 10:31:27;;;;;;;9.35;2.60;;;11.20;99.90;;;;;;6065319;23;20027;-79
2024/02/21 10:34:18;;;;;;;8.27;2.35;;;11.00;99.90;;;;;;6062399;23;20027;-78
2024/02/21 10:37:10;;;;;;;10.65;3.13;;;11.70;99.90;;;;;;6045960;23;20037;-78
2024/02/21 10:39:58;;;;;;;8.02;2.08;;;11.70;99.90;;;;;;6066211;23;20027;-78
2024/02/21 10:42:48;;;;;;;7.78;2.10;;;11.40;99.90;;;;;;6037023;23;20181;-79
2024/02/21 10:45:41;;;;;;;5.03;2.03;;;11.30;99.90;;;;;;6062696;23;20036;-79
2024/02/21 10:48:36;;;;;;;5.50;2.22;;;11.20;97.50;;;;;;6047072;23;20042;-79
2024/02/21 10:51:30;;;;;;;12.30;2.38;;;11.00;91.00;;;;;;6022629;23;20030;-80
2024/02/21 10:54:29;;;;;;;17.25;3.58;;;11.20;85.70;;;;;;6051038;23;20078;-78
2024/02/21 10:57:19;;;;;;;9.40;2.63;;;11.30;80.40;;;;;;6083003;23;20064;-79
2024/02/21 11:00:12;;;;;;;11.93;2.55;;;11.30;74.80;;;;;;6071179;23;20357;-79
2024/02/21 11:03:00;;;;;;;8.20;2.65;;;11.40;73.80;;;;;;6055172;23;20031;-80
2024/02/21 11:05:49;;;;;;;9.93;2.63;;;11.40;66.00;;;;;;6058233;23;20037;-79
2024/02/21 11:08:39;;;;;;;5.03;2.03;;;11.30;63.70;;;;;;6037517;23;20030;-79
2024/02/21 11:11:30;;;;;;;9.88;2.85;;;11.10;58.70;;;;;;6055677;23;20158;-79
2024/02/21 11:14:28;;;;;;;11.85;3.42;;;11.10;58.10;;;;;;6056867;23;20409;-79
2024/02/21 11:17:19;;;;;;;5.38;2.40;;;11.00;57.40;;;;;;6057349;23;20026;-78
2024/02/21 11:20:14;;;;;;;8.07;2.65;;;10.90;53.30;;;;;;6057509;23;20457;-77
2024/02/21 11:23:01;;;;;;;5.05;1.60;;;10.90;65.50;;;;;;6055725;23;20034;-78
2024/02/21 11:25:49;;;;;;;8.50;2.30;;;10.80;46.40;;;;;;6035410;23;20067;-78
2024/02/21 11:28:37;;;;;;;6.05;2.17;;;10.70;43.90;;;;;;6036175;23;20110;-80
2024/02/21 11:31:42;;;;;;;6.35;1.88;;;10.80;43.30;;;;;;6055269;23;20027;-80
2024/02/21 11:34:30;;;;;;;2.72;1.90;;;11.00;38.50;;;;;;6056360;23;20506;-79
2024/02/21 11:37:18;;;;;;;6.15;2.30;;;11.00;35.70;;;;;;6057372;23;20094;-78
2024/02/21 11:40:09;;;;;;;9.52;2.92;;;10.80;37.00;;;;;;6058977;23;20026;-78
2024/02/21 11:43:01;;;;;;;7.88;2.35;;;11.10;38.80;;;;;;6061038;23;20510;-79
2024/02/21 11:45:49;;;;;;;5.47;1.73;;;11.10;35.90;;;;;;6046998;23;20035;-79
2024/02/21 11:48:38;;;;;;;8.82;2.03;;;11.10;34.60;;;;;;6053544;23;20419;-79
2024/02/21 11:51:26;;;;;;;5.97;1.90;;;11.10;31.70;;;;;;6069910;23;20027;-82
2024/02/21 11:54:16;;;;;;;7.72;2.42;;;10.90;29.70;;;;;;6069717;23;20041;-81
2024/02/21 11:57:04;;;;;;;10.82;2.90;;;10.80;32.10;;;;;;6036323;23;20031;-80
2024/02/21 12:00:24;;;;;;;5.88;2.25;;;10.90;32.80;;;;;;6059451;23;20019;-79
2024/02/21 12:03:12;;;;;;;7.90;2.67;;;11.10;33.40;;;;;;6068959;23;20774;-80
2024/02/21 12:06:03;;;;;;;10.80;2.10;;;11.30;28.20;;;;;;6058759;23;20026;-80
2024/02/21 12:08:53;;;;;;;3.97;2.05;;;11.50;26.30;;;;;;6066571;23;20041;-78
2024/02/21 12:11:41;;;;;;;5.53;1.88;;;11.80;23.50;;;;;;6055935;23;20029;-77
2024/02/21 12:14:30;;;;;;;5.32;2.15;;;12.20;18.10;;;;;;6074808;23;20022;-79
2024/02/21 12:17:18;;;;;;;4.90;2.00;;;12.40;13.80;;;;;;6075000;23;20059;-77
2024/02/21 12:20:11;;;;;;;4.57;1.83;;;12.50;5.10;;;;;;6040067;23;20023;-79
2024/02/21 12:23:04;;;;;;;6.28;2.40;;;12.70;2.70;;;;;;6059496;23;20249;-77
2024/02/21 12:25:54;;;;;;;5.70;1.37;;;12.80;1.00;;;;;;6039435;23;20082;-79
2024/02/21 12:28:43;;;;;;;4.50;1.60;;;12.60;1.00;;;;;;6060698;23;20211;-80
2024/02/21 12:31:31;;;;;;;4.43;1.52;;;12.50;1.00;;;;;;6038464;23;20038;-78
2024/02/21 12:34:19;;;;;;;3.95;1.92;;;12.50;1.00;;;;;;6060518;23;20031;-82
2024/02/21 12:37:24;;;;;;;4.57;1.80;;;12.60;1.00;;;;;;6063216;23;20027;-79
2024/02/21 12:40:21;;;;;;;4.53;1.60;;;12.60;1.00;;;;;;6068718;23;20029;-78
2024/02/21 12:43:09;;;;;;;4.90;1.73;;;12.60;1.00;;;;;;6069740;23;20051;-80
2024/02/21 12:45:57;;;;;;;5.45;1.75;;;12.50;1.00;;;;;;6072639;23;20030;-79
2024/02/21 12:48:44;;;;;;;3.75;1.30;;;12.40;1.00;;;;;;6052559;23;20830;-78
2024/02/21 12:51:32;;;;;;;2.83;1.10;;;12.10;1.00;;;;;;6065882;23;20031;-78
2024/02/21 12:54:20;;;;;;;3.97;1.95;;;12.00;1.00;;;;;;6047976;23;20027;-78
2024/02/21 12:57:08;;;;;;;7.00;1.83;;;12.00;1.00;;;;;;6052586;23;20023;-79
2024/02/21 12:59:57;;;;;;;5.40;1.48;;;12.30;1.00;;;;;;6069231;23;20074;-81
2024/02/21 13:02:49;;;;;;;7.22;2.00;;;12.20;1.00;;;;;;6060534;23;20413;-79
2024/02/21 13:05:38;;;;;;;4.72;1.70;;;12.20;1.00;;;;;;6058368;23;20042;-80
2024/02/21 13:08:26;;;;;;;3.63;1.55;;;12.30;1.00;;;;;;6057708;23;20022;-78
2024/02/21 13:11:13;;;;;;;6.05;1.75;;;12.10;1.00;;;;;;6058518;23;20102;-78
2024/02/21 13:14:01;;;;;;;4.20;1.45;;;11.80;1.00;;;;;;6057322;23;20500;-78
2024/02/21 13:16:49;;;;;;;5.10;1.90;;;11.70;1.00;;;;;;6036129;23;20027;-77
2024/02/21 13:19:37;;;;;;;4.78;1.40;;;11.80;1.00;;;;;;6054914;23;20521;-80
2024/02/21 13:22:26;;;;;;;6.53;1.80;;;12.00;1.00;;;;;;6040621;23;20037;-77
2024/02/21 13:25:22;;;;;;;5.57;1.60;;;11.90;1.00;;;;;;6044399;23;20039;-76
2024/02/21 13:28:09;;;;;;;4.55;1.70;;;11.80;1.00;;;;;;6046921;23;20745;-77
2024/02/21 13:30:58;;;;;;;5.70;1.77;;;12.00;1.00;;;;;;6069413;23;20035;-77
2024/02/21 13:33:46;;;;;;;3.83;1.67;;;12.30;1.00;;;;;;6082486;23;20494;-77
2024/02/21 13:36:34;;;;;;;5.43;1.80;;;12.50;1.00;;;;;;6069242;23;20041;-78
2024/02/21 13:39:22;;;;;;;4.30;1.52;;;12.50;1.00;;;;;;6083497;23;20046;-78
2024/02/21 13:42:09;;;;;;;4.55;1.90;;;12.50;1.00;;;;;;6086964;23;20021;-77
2024/02/21 13:44:57;;;;;;;4.03;1.67;;;12.50;1.00;;;;;;6069797;23;20023;-75
2024/02/21 13:47:45;;;;;;;3.65;1.58;;;12.10;1.00;;;;;;6040511;23;20038;-79
2024/02/21 13:50:34;;;;;;;3.40;1.77;;;12.00;1.00;;;;;;6034431;23;20148;-80
2024/02/21 13:53:22;;;;;;;6.72;1.60;;;12.10;1.00;;;;;;6037519;23;20090;-77
2024/02/21 13:56:10;;;;;;;6.63;2.08;;;12.30;1.00;;;;;;6036329;23;20031;-78
2024/02/21 13:58:59;;;;;;;3.65;1.67;;;12.10;1.00;;;;;;6035684;23;20062;-79
2024/02/21 14:01:51;;;;;;;6.07;1.80;;;11.90;1.00;;;;;;6057312;23;20034;-78
2024/02/21 14:04:40;;;;;;;4.47;2.03;;;12.00;1.00;;;;;;6060515;23;20080;-77
2024/02/21 14:07:33;;;;;;;7.47;1.65;;;11.80;1.00;;;;;;6067698;23;20067;-78
2024/02/21 14:10:22;;;;;;;4.60;1.83;;;11.70;1.00;;;;;;6055511;23;20102;-77
2024/02/21 14:13:11;;;;;;;8.15;2.45;;;11.60;1.00;;;;;;6043106;23;20030;-77
2024/02/21 14:15:59;;;;;;;5.90;1.85;;;11.70;1.00;;;;;;6074549;23;20030;-76
2024/02/21 14:18:48;;;;;;;5.68;1.80;;;11.70;1.00;;;;;;6045148;23;20035;-77
2024/02/21 14:21:37;;;;;;;4.68;1.95;;;11.60;1.00;;;;;;6044762;23;20031;-77
2024/02/21 14:24:24;;;;;;;6.45;1.80;;;11.60;1.00;;;;;;6034352;23;20035;-78
2024/02/21 14:27:13;;;;;;;6.88;2.03;;;11.60;1.00;;;;;;6045468;23;20035;-79
2024/02/21 14:30:00;;;;;;;4.22;1.67;;;11.60;1.00;;;;;;6056352;23;20041;-79
2024/02/21 14:32:48;;;;;;;4.40;1.90;;;11.60;1.00;;;;;;6065887;23;20470;-79
2024/02/21 14:35:35;;;;;;;7.80;2.25;;;11.70;1.00;;;;;;6035327;23;20443;-80
2024/02/21 14:38:24;;;;;;;3.53;2.00;;;11.60;1.00;;;;;;6056429;23;20030;-80
2024/02/21 14:41:14;;;;;;;4.45;1.55;;;11.60;1.00;;;;;;6052980;23;20038;-79
2024/02/21 14:44:03;;;;;;;3.05;1.52;;;11.60;1.00;;;;;;6054954;23;20042;-79